EW6456 Weather Reports


Display with metric or nautical units.
time (UTC)temp
F
wind
direction
speed
MPH
gust
MPH
rain 1hr
in
rain 24hr
in
rain mn
in
humidity
%
barometer
mb
20240521010052 49 250 1.0 8.0 0.00 0.00 0.00 76 1014.8
20240521003014 53 278 8.0 12.0 0.00 0.00 0.00 61 1014.8
20240521001514 54 218 6.0 10.0 0.00 0.00 0.00 56 1014.4
20240521000006 55 214 3.0 7.0 0.00 0.00 0.00 52 1014.3
20240520234503 56 149 5.0 8.0 0.00 0.00 0.00 49 1014.2
20240520233002 57 90 0.0 5.0 0.00 0.00 0.00 41 1014.2
20240520231502 57 49 1.0 5.0 0.00 0.00 0.00 41 1014.1
20240520230101 57 11 4.0 6.0 0.00 0.00 0.00 41 1014.1
20240520224600 57 37 5.0 8.0 0.00 0.00 0.00 43 1014.1
20240520223100 57 22 5.0 10.0 0.00 0.00 0.00 45 1014.1
20240520221557 57 53 5.0 10.0 0.00 0.00 0.00 46 1014.1
20240520220051 56 27 5.0 10.0 0.00 0.00 0.00 46 1014.2
20240520214550 56 4 6.0 13.0 0.00 0.00 0.00 50 1014.3
20240520213047 56 333 9.0 16.0 0.00 0.00 0.00 50 1014.4
20240520211544 58 4 0.0 4.0 0.00 0.00 0.00 37 1014.3
20240520210040 58 319 2.0 5.0 0.00 0.00 0.00 35 1014.3
20240520204539 59 272 0.0 6.0 0.00 0.00 0.00 40 1014.4
20240520203038 58 155 0.0 6.0 0.00 0.00 0.00 41 1014.4
20240520201537 58 311 0.0 2.0 0.00 0.00 0.00 38 1014.4
20240520200034 57 177 2.0 6.0 0.00 0.00 0.00 42 1014.4
20240520194539 58 44 2.0 9.0 0.00 0.00 0.00 39 1014.5
20240520193031 58 27 2.0 8.0 0.00 0.00 0.00 40 1014.6
20240520191532 59 113 3.0 9.0 0.00 0.00 0.00 40 1014.7
20240520190030 58 79 0.0 6.0 0.00 0.00 0.00 45 1014.9
20240520184519 58 135 1.0 5.0 0.00 0.00 0.00 43 1015.1
20240520183022 57 141 0.0 8.0 0.00 0.00 0.00 47 1015.3
20240520181521 55 327 1.0 6.0 0.00 0.00 0.00 47 1015.5
20240520180010 56 311 1.0 8.0 0.00 0.00 0.00 47 1015.6
20240520174523 56 203 1.0 4.0 0.00 0.00 0.00 47 1015.8
20240520173008 56 319 3.0 7.0 0.00 0.00 0.00 47 1015.9
20240520171503 55 131 1.0 7.0 0.00 0.00 0.00 50 1016.0
20240520170100 56 263 0.0 4.0 0.00 0.00 0.00 50 1016.2
20240520164527 54 148 2.0 6.0 0.00 0.00 0.00 53 1016.3
20240520163027 53 53 0.0 4.0 0.00 0.00 0.00 54 1016.4
20240520161524 52 56 0.0 0.0 0.00 0.00 0.00 56 1016.6
20240520160032 51 69 0.0 5.0 0.00 0.00 0.00 58 1016.8
20240520154535 50 290 0.0 3.0 0.00 0.00 0.00 59 1016.9
20240520153037 50 79 1.0 7.0 0.00 0.00 0.00 59 1017.0
20240520151520 50 139 2.0 4.0 0.00 0.00 0.00 60 1017.2
20240520150020 49 114 0.0 3.0 0.00 0.00 0.00 64 1017.3
20240520144519 47 224 1.0 5.0 0.00 0.00 0.00 67 1017.5
20240520143017 46 243 3.0 6.0 0.00 0.00 0.00 68 1017.4
20240520141516 45 235 0.0 4.0 0.00 0.00 0.00 72 1017.4
20240520140018 43 297 4.0 6.0 0.00 0.00 0.00 76 1017.3
20240520134515 41 297 3.0 5.0 0.00 0.00 0.00 80 1017.3
20240520133018 39 259 3.0 6.0 0.00 0.00 0.00 83 1017.2
20240520131534 38 250 3.0 7.0 0.00 0.00 0.00 84 1017.3
20240520130008 37 287 3.0 6.0 0.00 0.00 0.00 86 1017.1
20240520124522 35 267 2.0 5.0 0.00 0.00 0.00 87 1017.1
20240520123008 35 255 2.0 5.0 0.00 0.00 0.00 88 1017.0
20240520121503 35 242 0.0 0.0 0.00 0.00 0.00 87 1016.8
20240520120004 34 242 0.0 0.0 0.00 0.00 0.00 89 1017.0
20240520114503 34 285 0.0 0.0 0.00 0.00 0.00 90 1016.8
20240520113007 33 294 0.0 1.0 0.00 0.00 0.00 89 1016.8
20240520111605 33 259 0.0 3.0 0.00 0.00 0.00 89 1016.9
20240520110120 33 267 0.0 3.0 0.00 0.00 0.00 89 1016.8
20240520104604 34 285 2.0 4.0 0.00 0.00 0.00 88 1016.7
20240520103056 35 290 3.0 4.0 0.00 0.00 0.00 87 1016.8
20240520101605 34 287 0.0 0.0 0.00 0.00 0.00 90 1016.9
20240520100051 33 265 0.0 0.0 0.00 0.00 0.00 90 1016.9
20240520094549 34 295 0.0 0.0 0.00 0.00 0.00 88 1016.7
20240520093051 34 283 0.0 0.0 0.00 0.00 0.00 87 1016.6
20240520091537 35 293 0.0 4.0 0.00 0.00 0.00 87 1016.5
20240520090042 35 310 2.0 4.0 0.00 0.00 0.00 88 1016.5
20240520084544 34 266 2.0 4.0 0.00 0.00 0.00 90 1016.4
20240520083031 34 289 1.0 4.0 0.00 0.00 0.00 89 1016.3
20240520081529 34 293 0.0 0.0 0.00 0.00 0.00 89 1016.2
20240520080031 35 293 0.0 0.0 0.00 0.00 0.00 88 1016.1
20240520074523 36 258 0.0 0.0 0.00 0.00 0.00 88 1016.2
20240520073021 36 295 1.0 3.0 0.00 0.00 0.00 86 1016.4
20240520071521 37 285 2.0 4.0 0.00 0.00 0.00 86 1016.3
20240520070018 38 316 2.0 5.0 0.00 0.00 0.00 84 1016.3
20240520064525 39 311 2.0 5.0 0.00 0.00 0.00 84 1016.2
20240520063023 38 307 3.0 5.0 0.00 0.00 0.00 85 1016.0
20240520061551 39 285 2.0 4.0 0.00 0.00 0.00 84 1016.1
20240520060052 38 293 2.0 4.0 0.00 0.00 0.00 85 1016.1
20240520054518 39 352 0.0 0.0 0.00 0.00 0.00 84 1016.3
20240520053016 39 352 0.0 0.0 0.00 0.00 0.00 85 1016.2
20240520051515 39 352 0.0 0.0 0.00 0.00 0.00 84 1016.2
20240520050019 39 352 0.0 0.0 0.00 0.00 0.00 82 1016.3
20240520044508 40 290 1.0 3.0 0.00 0.00 0.00 82 1016.0
20240520043004 40 293 1.0 3.0 0.00 0.00 0.00 80 1015.7
20240520041531 43 320 2.0 5.0 0.00 0.00 0.00 77 1015.3
20240520040028 44 326 3.0 7.0 0.00 0.00 0.00 75 1015.4
20240520034557 44 335 0.0 0.0 0.00 0.00 0.00 75 1015.4
20240520033054 44 335 0.0 0.0 0.00 0.00 0.00 74 1015.1
20240520031549 45 335 0.0 0.0 0.00 0.00 0.00 73 1015.1
20240520030048 45 335 0.0 2.0 0.00 0.00 0.00 71 1014.7
20240520024545 47 333 4.0 7.0 0.00 0.00 0.00 68 1014.3
20240520023042 48 338 3.0 11.0 0.00 0.00 0.00 64 1014.2
20240520021538 49 309 7.0 15.0 0.00 0.00 0.00 60 1014.0
20240520020038 51 342 10.0 22.0 0.00 0.00 0.00 60 1013.8
20240520014534 52 335 8.0 16.0 0.00 0.00 0.00 56 1013.6
20240520013032 53 347 10.0 16.0 0.00 0.00 0.00 52 1013.4